createdAt,value
2018-04-18T00:00:16.728Z,77.75
2018-04-18T00:01:17.547Z,77.36
2018-04-18T00:02:17.123Z,77.75
2018-04-18T00:03:17.323Z,78.03
2018-04-18T00:04:18.450Z,78.13
2018-04-18T00:05:17.678Z,78.13
2018-04-18T00:06:17.879Z,78.22
2018-04-18T00:07:18.057Z,77.94
2018-04-18T00:08:18.160Z,78.32
2018-04-18T00:09:18.325Z,77.55
2018-04-18T00:10:18.430Z,77.26
2018-04-18T00:11:18.466Z,77.84
2018-04-18T00:12:18.832Z,77.17
2018-04-18T00:13:19.028Z,77.75
2018-04-18T00:14:19.194Z,77.26
2018-04-18T00:15:19.986Z,77.55
2018-04-18T00:16:20.527Z,76.40
2018-04-18T00:17:19.683Z,77.26
2018-04-18T00:18:20.519Z,77.36
2018-04-18T00:19:20.111Z,77.36
2018-04-18T00:20:21.086Z,77.36
2018-04-18T00:21:20.952Z,77.94
2018-04-18T00:22:20.599Z,77.36
2018-04-18T00:23:20.789Z,77.26
2018-04-18T00:24:20.846Z,77.55
2018-04-18T00:25:21.044Z,77.55
2018-04-18T00:26:21.250Z,77.17
2018-04-18T00:27:21.432Z,76.98
2018-04-18T00:28:21.595Z,77.46
2018-04-18T00:29:21.689Z,77.55
2018-04-18T00:30:21.772Z,76.89
2018-04-18T00:31:21.899Z,77.55
2018-04-18T00:32:22.299Z,77.08
2018-04-18T00:33:22.437Z,77.36
2018-04-18T00:34:22.629Z,77.36
2018-04-18T00:35:22.776Z,77.46
2018-04-18T00:36:23.035Z,77.36
2018-04-18T00:37:23.218Z,77.26
2018-04-18T00:38:23.217Z,76.89
2018-04-18T00:39:23.616Z,76.31
2018-04-18T00:40:24.513Z,76.79
2018-04-18T00:41:23.839Z,77.26
2018-04-18T00:42:24.074Z,77.36
2018-04-18T00:43:24.189Z,77.33
2018-04-18T00:44:24.327Z,77.90
2018-04-18T00:45:24.493Z,78.13
2018-04-18T00:46:24.728Z,78.76
2018-04-18T00:47:24.979Z,78.57
2018-04-18T00:48:25.095Z,78.13
2018-04-18T00:49:25.181Z,77.94
2018-04-18T00:50:25.320Z,77.94
2018-04-18T00:51:25.502Z,77.99
2018-04-18T00:52:25.775Z,77.70
2018-04-18T00:53:25.919Z,77.13
2018-04-18T00:54:26.080Z,77.42
2018-04-18T00:55:26.286Z,77.42
2018-04-18T00:56:26.423Z,78.28
2018-04-18T00:57:26.606Z,78.09
2018-04-18T00:58:26.649Z,77.70
2018-04-18T00:59:27.026Z,77.70
2018-04-18T01:00:27.083Z,78.09
2018-04-18T01:01:27.293Z,78.66
2018-04-18T01:02:27.284Z,78.57
2018-04-18T01:03:27.554Z,78.38
2018-04-18T01:04:27.858Z,78.28
2018-04-18T01:05:28.076Z,78.28
2018-04-18T01:06:28.118Z,78.66
2018-04-18T01:07:28.493Z,78.09
2018-04-18T01:08:28.562Z,78.57
2018-04-18T01:09:28.792Z,79.00
2018-04-18T01:10:29.000Z,79.33
2018-04-18T01:11:29.269Z,79.43
2018-04-18T01:12:29.462Z,79.33
2018-04-18T01:13:29.655Z,79.52
2018-04-18T01:14:29.797Z,79.43
2018-04-18T01:15:29.773Z,79.24
2018-04-18T01:16:30.149Z,79.29
2018-04-18T01:17:30.298Z,79.10
2018-04-18T01:18:30.597Z,79.24
2018-04-18T01:19:30.661Z,79.62
2018-04-18T01:20:31.520Z,79.33
2018-04-18T01:21:31.041Z,79.05
2018-04-18T01:22:31.133Z,78.47
2018-04-18T01:23:31.432Z,78.47
2018-04-18T01:24:31.462Z,78.57
2018-04-18T01:25:31.625Z,78.38
2018-04-18T01:26:32.001Z,78.38
2018-04-18T01:27:32.002Z,79.14
2018-04-18T01:28:32.377Z,79.24
2018-04-18T01:29:32.283Z,79.20
2018-04-18T01:30:32.443Z,79.39
2018-04-18T01:31:32.620Z,79.87
2018-04-18T01:32:32.993Z,79.10
2018-04-18T01:33:33.074Z,79.77
2018-04-18T01:34:33.239Z,79.49
2018-04-18T01:35:33.502Z,79.29
2018-04-18T01:36:33.596Z,79.58
2018-04-18T01:37:33.647Z,79.39
2018-04-18T01:38:33.825Z,79.29
2018-04-18T01:39:35.016Z,80.35
2018-04-18T01:40:34.129Z,80.54
2018-04-18T01:41:34.292Z,80.54
2018-04-18T01:42:34.603Z,80.16
2018-04-18T01:43:34.777Z,80.44
2018-04-18T01:44:34.967Z,80.44
2018-04-18T01:45:35.126Z,80.44
2018-04-18T01:46:35.162Z,80.73
2018-04-18T01:47:35.374Z,80.35
2018-04-18T01:48:35.671Z,80.54
2018-04-18T01:49:35.709Z,80.54
2018-04-18T01:50:36.008Z,80.44
2018-04-18T01:51:36.271Z,80.35
2018-04-18T01:52:36.822Z,80.73
2018-04-18T01:53:36.508Z,81.40
2018-04-18T01:54:36.522Z,81.49
2018-04-18T01:55:37.515Z,81.40
2018-04-18T01:56:37.989Z,81.02
2018-04-18T01:57:37.234Z,80.92
2018-04-18T01:58:37.441Z,81.40
2018-04-18T01:59:37.674Z,81.49
2018-04-18T02:00:37.749Z,81.65
2018-04-18T02:01:38.033Z,81.78
2018-04-18T02:02:38.058Z,81.40
2018-04-18T02:03:38.415Z,81.49
2018-04-18T02:04:38.419Z,82.26
2018-04-18T02:05:38.569Z,81.88
2018-04-18T02:06:38.745Z,81.49
2018-04-18T02:07:38.983Z,81.26
2018-04-18T02:08:39.092Z,81.26
2018-04-18T02:09:39.012Z,81.36
2018-04-18T02:10:39.358Z,80.59
2018-04-18T02:11:39.528Z,80.88
2018-04-18T02:12:39.474Z,81.26
2018-04-18T02:13:39.639Z,81.26
2018-04-18T02:14:39.976Z,81.55
2018-04-18T02:15:41.070Z,81.55
2018-04-18T02:16:40.212Z,82.12
2018-04-18T02:17:40.358Z,82.31
2018-04-18T02:18:40.608Z,82.70
2018-04-18T02:19:40.747Z,83.80
2018-04-18T02:20:40.866Z,84.66
2018-04-18T02:21:41.170Z,85.05
2018-04-18T02:22:41.389Z,85.81
2018-04-18T02:23:41.414Z,86.29
2018-04-18T02:24:41.544Z,86.05
2018-04-18T02:25:41.705Z,86.24
2018-04-18T02:26:41.884Z,85.33
2018-04-18T02:27:42.043Z,85.42
2018-04-18T02:28:42.243Z,85.33
2018-04-18T02:29:42.463Z,85.42
2018-04-18T02:30:42.629Z,84.76
2018-04-18T02:31:42.953Z,84.95
2018-04-18T02:32:43.044Z,84.95
2018-04-18T02:33:43.110Z,84.28
2018-04-18T02:34:43.264Z,84.66
2018-04-18T02:35:43.364Z,84.19
2018-04-18T02:36:43.546Z,84.19
2018-04-18T02:37:43.719Z,83.33
2018-04-18T02:38:44.389Z,83.23
2018-04-18T02:39:44.272Z,83.13
2018-04-18T02:40:44.213Z,83.33
2018-04-18T02:41:44.368Z,83.33
2018-04-18T02:42:44.541Z,83.61
2018-04-18T02:43:44.700Z,83.51
2018-04-18T02:44:44.857Z,83.90
2018-04-18T02:45:45.050Z,83.23
2018-04-18T02:46:45.208Z,83.51
2018-04-18T02:47:45.375Z,83.51
2018-04-18T02:48:45.546Z,83.61
2018-04-18T02:49:45.706Z,83.80
2018-04-18T02:50:45.879Z,83.61
2018-04-18T02:51:46.047Z,84.09
2018-04-18T02:52:46.217Z,84.38
2018-04-18T02:53:46.388Z,83.99
2018-04-18T02:54:46.558Z,84.38
2018-04-18T02:55:46.729Z,84.47
2018-04-18T02:56:46.894Z,83.90
2018-04-18T02:57:47.065Z,83.70
2018-04-18T02:58:47.229Z,83.61
2018-04-18T02:59:47.405Z,83.33
2018-04-18T03:00:47.567Z,84.09
2018-04-18T03:01:47.755Z,84.38
2018-04-18T03:02:47.902Z,83.90
2018-04-18T03:03:48.082Z,83.61
2018-04-18T03:04:48.259Z,83.90
2018-04-18T03:05:48.433Z,83.70
2018-04-18T03:06:48.578Z,84.19
2018-04-18T03:07:48.743Z,83.51
2018-04-18T03:08:48.914Z,82.94
2018-04-18T03:09:49.081Z,83.33
2018-04-18T03:10:49.887Z,83.23
2018-04-18T03:11:49.453Z,83.13
2018-04-18T03:12:49.586Z,82.84
2018-04-18T03:13:49.763Z,82.75
2018-04-18T03:14:49.920Z,83.04
2018-04-18T03:15:50.323Z,82.94
2018-04-18T03:16:50.286Z,83.04
2018-04-18T03:17:50.451Z,83.90
2018-04-18T03:18:50.624Z,83.80
2018-04-18T03:19:50.788Z,84.09
2018-04-18T03:20:50.963Z,83.61
2018-04-18T03:21:51.137Z,83.57
2018-04-18T03:22:51.302Z,84.56
2018-04-18T03:23:51.471Z,84.62
2018-04-18T03:24:51.920Z,84.33
2018-04-18T03:25:51.781Z,84.43
2018-04-18T03:26:51.946Z,84.76
2018-04-18T03:27:52.113Z,84.43
2018-04-18T03:28:52.412Z,84.23
2018-04-18T03:29:52.434Z,84.91
2018-04-18T03:30:52.600Z,84.72
2018-04-18T03:31:52.876Z,85.10
2018-04-18T03:32:52.944Z,85.38
2018-04-18T03:33:53.114Z,85.58
2018-04-18T03:34:53.284Z,85.58
2018-04-18T03:35:53.468Z,85.58
2018-04-18T03:36:53.621Z,86.05
2018-04-18T03:37:53.785Z,85.96
2018-04-18T03:38:53.950Z,85.86
2018-04-18T03:39:54.120Z,85.86
2018-04-18T03:40:54.281Z,86.43
2018-04-18T03:41:54.451Z,86.15
2018-04-18T03:42:54.617Z,85.96
2018-04-18T03:43:54.784Z,86.24
2018-04-18T03:44:55.178Z,85.58
2018-04-18T03:45:55.126Z,85.48
2018-04-18T03:46:55.293Z,85.38
2018-04-18T03:47:55.684Z,85.58
2018-04-18T03:48:55.669Z,85.48
2018-04-18T03:49:55.948Z,85.86
2018-04-18T03:50:56.042Z,85.00
2018-04-18T03:51:56.213Z,84.52
2018-04-18T03:52:56.388Z,85.10
2018-04-18T03:53:56.566Z,85.10
2018-04-18T03:54:56.721Z,84.91
2018-04-18T03:55:56.892Z,84.72
2018-04-18T03:56:57.069Z,84.72
2018-04-18T03:57:57.228Z,84.91
2018-04-18T03:58:57.396Z,85.38
2018-04-18T03:59:57.557Z,85.58
2018-04-18T04:00:57.741Z,86.05
2018-04-18T04:01:57.911Z,85.29
2018-04-18T04:02:58.077Z,85.38
2018-04-18T04:03:58.242Z,86.15
2018-04-18T04:04:58.410Z,86.34
2018-04-18T04:05:58.576Z,85.58
2018-04-18T04:06:58.771Z,85.00
2018-04-18T04:07:58.935Z,85.29
2018-04-18T04:08:59.149Z,85.19
2018-04-18T04:09:59.301Z,85.38
2018-04-18T04:10:59.419Z,85.77
2018-04-18T04:11:59.600Z,86.10
2018-04-18T04:12:59.758Z,85.96
2018-04-18T04:13:59.919Z,86.24
2018-04-18T04:15:00.096Z,86.49
2018-04-18T04:16:00.391Z,86.68
2018-04-18T04:17:00.469Z,86.87
2018-04-18T04:18:00.629Z,86.77
2018-04-18T04:19:00.788Z,86.58
2018-04-18T04:20:00.974Z,86.49
2018-04-18T04:21:01.136Z,86.87
2018-04-18T04:22:01.302Z,86.49
2018-04-18T04:23:01.465Z,86.39
2018-04-18T04:24:01.645Z,86.01
2018-04-18T04:25:01.815Z,85.91
2018-04-18T04:26:01.978Z,86.30
2018-04-18T04:27:02.145Z,86.87
2018-04-18T04:28:02.316Z,86.77
2018-04-18T04:29:02.608Z,86.49
2018-04-18T04:30:02.676Z,86.05
2018-04-18T04:31:02.919Z,86.05
2018-04-18T04:32:02.982Z,85.38
2018-04-18T04:33:03.148Z,85.00
2018-04-18T04:34:03.332Z,85.29
2018-04-18T04:35:04.412Z,85.38
2018-04-18T04:36:03.700Z,84.91
2018-04-18T04:37:03.918Z,84.72
2018-04-18T04:38:04.207Z,84.43
2018-04-18T04:39:04.216Z,84.05
2018-04-18T04:40:04.375Z,83.57
2018-04-18T04:41:04.557Z,83.67
2018-04-18T04:42:04.720Z,83.28
2018-04-18T04:43:04.890Z,83.47
2018-04-18T04:44:05.062Z,83.67
2018-04-18T04:45:05.235Z,82.81
2018-04-18T04:46:05.415Z,83.57
2018-04-18T04:47:05.602Z,83.09
2018-04-18T04:48:05.742Z,82.90
2018-04-18T04:49:05.925Z,82.32
2018-04-18T04:50:06.081Z,82.32
2018-04-18T04:51:06.247Z,83.09
2018-04-18T04:52:06.427Z,83.47
2018-04-18T04:53:06.766Z,83.67
2018-04-18T04:54:06.905Z,83.67
2018-04-18T04:55:06.975Z,83.28
2018-04-18T04:56:07.143Z,83.38
2018-04-18T04:57:07.315Z,83.28
2018-04-18T04:58:07.482Z,82.90
2018-04-18T04:59:07.651Z,82.71
2018-04-18T05:00:07.989Z,82.32
2018-04-18T05:01:08.029Z,82.90
2018-04-18T05:02:08.200Z,82.52
2018-04-18T05:03:08.365Z,82.90
2018-04-18T05:04:08.544Z,83.18
2018-04-18T05:05:08.712Z,83.47
2018-04-18T05:06:08.878Z,83.34
2018-04-18T05:07:09.246Z,83.24
2018-04-18T05:08:09.161Z,83.91
2018-04-18T05:09:09.328Z,84.48
2018-04-18T05:10:09.495Z,84.20
2018-04-18T05:11:09.666Z,84.58
2018-04-18T05:12:09.830Z,84.62
2018-04-18T05:13:10.000Z,84.72
2018-04-18T05:14:10.172Z,84.23
2018-04-18T05:15:10.337Z,84.91
2018-04-18T05:16:10.515Z,84.62
2018-04-18T05:17:10.685Z,84.23
2018-04-18T05:18:10.863Z,84.52
2018-04-18T05:19:11.028Z,84.52
2018-04-18T05:20:11.193Z,84.33
2018-04-18T05:21:11.384Z,84.33
2018-04-18T05:22:11.524Z,83.95
2018-04-18T05:23:11.685Z,83.76
2018-04-18T05:24:11.854Z,83.28
2018-04-18T05:25:12.023Z,83.38
2018-04-18T05:26:12.198Z,83.18
2018-04-18T05:27:12.364Z,83.00
2018-04-18T05:28:12.876Z,83.47
2018-04-18T05:29:12.713Z,83.57
2018-04-18T05:30:12.887Z,83.76
2018-04-18T05:31:13.052Z,83.67
2018-04-18T05:32:13.229Z,84.05
2018-04-18T05:33:13.392Z,83.95
2018-04-18T05:34:13.561Z,84.43
2018-04-18T05:35:13.734Z,84.33
2018-04-18T05:36:13.901Z,84.23
2018-04-18T05:37:14.072Z,84.05
2018-04-18T05:38:14.257Z,83.95
2018-04-18T05:39:14.414Z,83.95
2018-04-18T05:40:14.581Z,83.67
2018-04-18T05:41:14.763Z,83.95
2018-04-18T05:42:14.974Z,83.38
2018-04-18T05:43:15.099Z,83.95
2018-04-18T05:44:15.266Z,83.90
2018-04-18T05:45:15.485Z,83.61
2018-04-18T05:46:15.595Z,83.57
2018-04-18T05:47:15.770Z,83.67
2018-04-18T05:48:15.946Z,83.67
2018-04-18T05:49:16.130Z,83.57
2018-04-18T05:50:16.282Z,83.76
2018-04-18T05:51:16.447Z,84.14
2018-04-18T05:52:16.635Z,83.99
2018-04-18T05:53:16.798Z,83.90
2018-04-18T05:54:16.966Z,83.61
2018-04-18T05:55:17.163Z,83.42
2018-04-18T05:56:17.293Z,83.51
2018-04-18T05:57:17.471Z,83.13
2018-04-18T05:58:17.644Z,83.13
2018-04-18T05:59:17.823Z,82.84
2018-04-18T06:00:17.980Z,83.04
2018-04-18T06:01:18.152Z,83.13
2018-04-18T06:02:18.318Z,83.90
2018-04-18T06:03:18.491Z,84.09
2018-04-18T06:04:18.662Z,83.33
2018-04-18T06:05:18.834Z,83.80
2018-04-18T06:06:19.018Z,83.80
2018-04-18T06:07:19.169Z,83.17
2018-04-18T06:08:19.364Z,83.17
2018-04-18T06:09:19.519Z,82.70
2018-04-18T06:10:19.686Z,81.93
2018-04-18T06:11:19.851Z,81.93
2018-04-18T06:12:20.025Z,82.22
2018-04-18T06:13:20.185Z,81.93
2018-04-18T06:14:20.351Z,81.84
2018-04-18T06:15:20.518Z,82.03
2018-04-18T06:16:20.719Z,82.12
2018-04-18T06:17:20.866Z,81.49
2018-04-18T06:18:21.038Z,81.11
2018-04-18T06:19:21.211Z,80.25
2018-04-18T06:20:21.374Z,80.35
2018-04-18T06:21:21.547Z,80.44
2018-04-18T06:22:21.711Z,80.63
2018-04-18T06:23:21.883Z,80.54
2018-04-18T06:24:22.059Z,81.21
2018-04-18T06:25:22.228Z,81.49
2018-04-18T06:26:22.393Z,81.30
2018-04-18T06:27:22.558Z,81.30
2018-04-18T06:28:22.721Z,81.02
2018-04-18T06:29:22.891Z,80.92
2018-04-18T06:30:23.064Z,81.59
2018-04-18T06:31:23.227Z,81.78
2018-04-18T06:32:23.407Z,81.30
2018-04-18T06:33:23.571Z,81.78
2018-04-18T06:34:23.741Z,81.88
2018-04-18T06:35:23.906Z,81.88
2018-04-18T06:36:24.070Z,81.25
2018-04-18T06:37:24.243Z,81.49
2018-04-18T06:38:24.407Z,81.21
2018-04-18T06:39:24.574Z,81.49
2018-04-18T06:40:24.746Z,81.25
2018-04-18T06:41:24.910Z,81.63
2018-04-18T06:42:25.078Z,81.73
2018-04-18T06:43:25.246Z,81.73
2018-04-18T06:44:25.417Z,81.05
2018-04-18T06:45:25.585Z,81.92
2018-04-18T06:46:25.755Z,80.77
2018-04-18T06:47:25.918Z,80.96
2018-04-18T06:48:26.086Z,81.73
2018-04-18T06:49:26.259Z,81.73
2018-04-18T06:50:26.431Z,80.90
2018-04-18T06:51:26.598Z,80.71
2018-04-18T06:52:26.773Z,81.20
2018-04-18T06:53:26.943Z,81.20
2018-04-18T06:54:27.111Z,81.38
2018-04-18T06:55:27.274Z,80.52
2018-04-18T06:56:27.447Z,80.52
2018-04-18T06:57:27.616Z,80.18
2018-04-18T06:58:27.780Z,79.51
2018-04-18T06:59:27.947Z,78.64
2018-04-18T07:00:28.121Z,78.07
2018-04-18T07:01:28.288Z,78.45
2018-04-18T07:02:28.460Z,79.13
2018-04-18T07:03:28.683Z,79.51
2018-04-18T07:04:28.793Z,79.41
2018-04-18T07:05:28.962Z,79.03
2018-04-18T07:06:29.131Z,78.17
2018-04-18T07:07:29.301Z,78.40
2018-04-18T07:08:29.471Z,78.20
2018-04-18T07:09:29.631Z,78.69
2018-04-18T07:10:29.799Z,79.55
2018-04-18T07:11:29.967Z,79.07
2018-04-18T07:12:30.135Z,79.16
2018-04-18T07:13:30.306Z,79.74
2018-04-18T07:14:30.474Z,80.51
2018-04-18T07:15:30.660Z,80.12
2018-04-18T07:16:30.833Z,79.16
2018-04-18T07:17:31.003Z,79.16
2018-04-18T07:18:31.175Z,78.59
2018-04-18T07:19:31.344Z,78.11
2018-04-18T07:20:31.509Z,77.76
2018-04-18T07:21:31.687Z,78.34
2018-04-18T07:22:31.858Z,78.34
2018-04-18T07:23:32.028Z,78.53
2018-04-18T07:24:32.191Z,78.05
2018-04-18T07:25:32.355Z,78.15
2018-04-18T07:26:32.526Z,78.15
2018-04-18T07:27:32.693Z,78.00
2018-04-18T07:28:32.862Z,79.49
2018-04-18T07:29:33.032Z,78.44
2018-04-18T07:30:33.200Z,78.34
2018-04-18T07:31:33.386Z,78.47
2018-04-18T07:32:33.556Z,77.58
2018-04-18T07:33:33.726Z,77.42
2018-04-18T07:34:33.892Z,76.46
2018-04-18T07:35:34.060Z,76.27
2018-04-18T07:36:34.248Z,76.94
2018-04-18T07:37:34.415Z,76.27
2018-04-18T07:38:34.581Z,75.63
2018-04-18T07:39:34.760Z,75.82
2018-04-18T07:40:34.924Z,75.54
2018-04-18T07:41:35.094Z,75.45
2018-04-18T07:42:35.269Z,75.45
2018-04-18T07:43:35.438Z,75.35
2018-04-18T07:44:35.600Z,75.82
2018-04-18T07:45:35.771Z,75.25
2018-04-18T07:46:35.965Z,75.29
2018-04-18T07:47:36.119Z,74.52
2018-04-18T07:48:36.286Z,74.23
2018-04-18T07:49:36.458Z,74.17
2018-04-18T07:50:36.633Z,73.98
2018-04-18T07:51:36.803Z,74.08
2018-04-18T07:52:36.979Z,74.55
2018-04-18T07:53:37.160Z,74.79
2018-04-18T07:54:37.323Z,73.15
2018-04-18T07:55:37.492Z,72.48
2018-04-18T07:56:37.661Z,72.09
2018-04-18T07:57:37.820Z,71.14
2018-04-18T07:58:38.003Z,72.19
2018-04-18T07:59:38.165Z,71.42
2018-04-18T08:00:38.331Z,71.81
2018-04-18T08:01:38.510Z,71.46
2018-04-18T08:02:38.676Z,71.08
2018-04-18T08:03:38.850Z,71.55
2018-04-18T08:04:39.031Z,71.84
2018-04-18T08:05:39.201Z,70.43
2018-04-18T08:06:39.369Z,70.50
2018-04-18T08:07:39.539Z,69.34
2018-04-18T08:08:39.708Z,68.48
2018-04-18T08:09:39.884Z,68.13
2018-04-18T08:10:40.057Z,68.22
2018-04-18T08:11:40.224Z,67.93
2018-04-18T08:12:40.398Z,65.81
2018-04-18T08:13:40.577Z,65.43
2018-04-18T08:14:40.755Z,64.59
2018-04-18T08:15:40.915Z,64.02
2018-04-18T08:16:41.093Z,64.79
2018-04-18T08:17:41.263Z,64.53
2018-04-18T08:18:41.435Z,64.53
2018-04-18T08:19:41.602Z,65.98
2018-04-18T08:20:41.781Z,66.88
2018-04-18T08:21:41.975Z,64.92
2018-04-18T08:22:42.131Z,64.37
2018-04-18T08:23:42.300Z,63.79
2018-04-18T08:24:42.473Z,64.28
2018-04-18T08:25:42.648Z,63.73
2018-04-18T08:26:42.810Z,63.15
2018-04-18T08:27:42.983Z,64.31
2018-04-18T08:28:43.162Z,62.66
2018-04-18T08:29:43.337Z,62.86
2018-04-18T08:30:43.506Z,62.22
2018-04-18T08:31:43.676Z,60.68
2018-04-18T08:32:43.842Z,61.67
2018-04-18T08:33:44.016Z,62.34
2018-04-18T08:34:44.190Z,60.13
2018-04-18T08:35:44.358Z,61.02
2018-04-18T08:36:44.526Z,59.19
2018-04-18T08:37:44.703Z,57.38
2018-04-18T08:38:44.878Z,57.73
2018-04-18T08:39:45.045Z,54.88
2018-04-18T08:40:45.223Z,49.82
2018-04-18T08:41:45.384Z,45.38
2018-04-18T08:42:45.556Z,42.04
2018-04-18T08:43:45.732Z,39.67
2018-04-18T08:44:45.906Z,36.51
2018-04-18T08:45:46.077Z,33.72
2018-04-18T08:46:46.254Z,31.90
2018-04-18T08:47:46.427Z,30.15
2018-04-18T08:49:39.863Z,28.31
2018-04-18T08:50:40.453Z,27.95
2018-04-18T08:51:40.689Z,27.56
2018-04-18T08:52:41.313Z,26.61
2018-04-18T08:53:41.043Z,24.37
2018-04-18T08:54:40.678Z,24.18
2018-04-18T08:55:40.858Z,23.30
2018-04-18T08:56:41.036Z,22.82
2018-04-18T08:57:41.212Z,22.63
2018-04-18T08:58:41.386Z,22.25
2018-04-18T08:59:41.579Z,21.08
2018-04-18T09:00:41.756Z,20.09
2018-04-18T09:01:41.933Z,20.11
2018-04-18T09:02:42.119Z,19.93
2018-04-18T09:03:42.280Z,21.80
2018-04-18T09:04:42.464Z,19.04
2018-04-18T09:05:42.653Z,19.64
2018-04-18T09:06:42.820Z,18.56
2018-04-18T09:07:43.001Z,18.08
2018-04-18T09:08:43.188Z,18.57
2018-04-18T09:09:43.376Z,17.98
2018-04-18T09:10:43.552Z,20.06
2018-04-18T09:11:43.734Z,18.19
2018-04-18T09:12:43.920Z,17.80
2018-04-18T09:13:44.100Z,17.22
2018-04-18T09:14:44.274Z,16.13
2018-04-18T09:15:44.460Z,16.43
2018-04-18T09:16:44.645Z,16.53
2018-04-18T09:17:44.827Z,18.19
2018-04-18T09:18:45.012Z,18.40
2018-04-18T09:19:45.198Z,16.42
2018-04-18T09:20:45.380Z,16.82
2018-04-18T09:21:45.572Z,17.80
2018-04-18T09:22:45.749Z,17.71
2018-04-18T09:23:45.946Z,18.29
2018-04-18T09:24:46.135Z,16.51
2018-04-18T09:25:46.324Z,16.23
2018-04-18T09:26:46.509Z,17.80
2018-04-18T09:27:46.686Z,18.31
2018-04-18T09:28:46.870Z,16.44
2018-04-18T09:29:47.063Z,16.05
2018-04-18T09:30:47.255Z,14.97
2018-04-18T09:31:47.436Z,15.06
2018-04-18T09:32:47.617Z,14.87
2018-04-18T09:33:47.804Z,14.48
2018-04-18T09:34:47.999Z,14.48
2018-04-18T09:35:48.176Z,14.30
2018-04-18T09:36:48.365Z,13.31
2018-04-18T09:37:48.557Z,13.31
2018-04-18T09:38:48.745Z,13.21
2018-04-18T09:39:48.929Z,13.12
2018-04-18T09:40:49.123Z,11.92
2018-04-18T09:41:49.311Z,11.53
2018-04-18T09:42:49.571Z,11.53
2018-04-18T09:43:49.724Z,11.24
2018-04-18T09:44:49.904Z,10.64
2018-04-18T09:45:50.094Z,10.94
2018-04-18T09:46:50.284Z,11.65
2018-04-18T09:47:50.473Z,10.65
2018-04-18T09:48:50.726Z,10.35
2018-04-18T09:49:50.896Z,10.65
2018-04-18T09:50:51.137Z,10.64
2018-04-18T09:51:51.228Z,10.05
2018-04-18T09:52:51.424Z,10.35
2018-04-18T09:53:51.614Z,10.64
2018-04-18T09:54:51.809Z,10.45
2018-04-18T09:55:52.004Z,10.35
2018-04-18T09:56:52.193Z,9.35
2018-04-18T09:57:52.390Z,8.96
2018-04-18T09:58:52.577Z,9.16
2018-04-18T09:59:52.759Z,9.66
2018-04-18T10:00:52.964Z,9.47
2018-04-18T10:01:53.156Z,8.67
2018-04-18T10:02:53.349Z,9.17
2018-04-18T10:03:53.535Z,9.08
2018-04-18T10:04:53.734Z,8.08
2018-04-18T10:05:53.919Z,8.37
2018-04-18T10:06:54.107Z,9.07
2018-04-18T10:07:54.298Z,8.98
2018-04-18T10:08:54.497Z,8.59
2018-04-18T10:09:54.688Z,8.19
2018-04-18T10:10:54.882Z,8.09
2018-04-18T10:11:55.075Z,8.00
2018-04-18T10:12:55.273Z,8.60
2018-04-18T10:13:55.473Z,9.00
2018-04-18T10:14:55.678Z,8.78
2018-04-18T10:15:55.874Z,9.08
2018-04-18T10:16:56.065Z,8.69
2018-04-18T10:17:56.257Z,8.09
2018-04-18T10:18:56.447Z,8.19
2018-04-18T10:19:56.641Z,8.30
2018-04-18T10:20:56.833Z,7.50
2018-04-18T10:21:57.029Z,7.50
2018-04-18T10:22:57.266Z,7.90
2018-04-18T10:23:57.419Z,8.00
2018-04-18T10:24:57.612Z,8.20
2018-04-18T10:25:57.812Z,7.90
2018-04-18T10:26:58.013Z,7.79
2018-04-18T10:27:58.207Z,7.20
2018-04-18T10:28:58.396Z,7.10
2018-04-18T10:29:58.591Z,7.50
2018-04-18T10:30:58.789Z,7.70
2018-04-18T10:31:58.984Z,7.50
2018-04-18T10:32:59.182Z,6.81
2018-04-18T10:33:59.374Z,7.41
2018-04-18T10:34:59.575Z,8.11
2018-04-18T10:35:59.770Z,7.40
2018-04-18T10:36:59.966Z,7.91
2018-04-18T10:38:00.177Z,7.91
2018-04-18T10:39:00.536Z,7.31
2018-04-18T10:40:00.591Z,7.52
2018-04-18T10:41:00.789Z,8.42
2018-04-18T10:42:00.982Z,8.01
2018-04-18T10:43:01.182Z,6.71
2018-04-18T10:44:01.371Z,9.22
2018-04-18T10:45:01.568Z,8.80
2018-04-18T10:46:01.770Z,9.59
2018-04-18T10:47:01.975Z,8.40
2018-04-18T10:48:02.171Z,8.40
2018-04-18T10:49:02.373Z,8.40
2018-04-18T10:50:02.577Z,8.61
2018-04-18T10:51:02.775Z,7.81
2018-04-18T10:52:02.968Z,8.42
2018-04-18T10:53:03.173Z,8.32
2018-04-18T10:54:03.365Z,7.51
2018-04-18T10:55:03.563Z,7.52
2018-04-18T10:56:03.763Z,7.22
2018-04-18T10:57:03.962Z,7.62
2018-04-18T10:58:04.169Z,8.33
2018-04-18T10:59:04.358Z,7.53
2018-04-18T11:00:04.544Z,6.82
2018-04-18T11:01:04.759Z,7.73
2018-04-18T11:02:04.957Z,8.53
2018-04-18T11:03:05.155Z,8.31
2018-04-18T11:04:05.357Z,8.10
2018-04-18T11:05:05.554Z,9.20
2018-04-18T11:06:05.745Z,9.00
2018-04-18T11:07:05.943Z,9.31
2018-04-18T11:08:06.156Z,8.61
2018-04-18T11:09:06.329Z,8.12
2018-04-18T11:10:06.523Z,7.92
2018-04-18T11:11:06.727Z,7.82
2018-04-18T11:12:06.923Z,7.52
2018-04-18T11:13:07.119Z,7.52
2018-04-18T11:14:07.323Z,7.62
2018-04-18T11:15:07.522Z,9.12
2018-04-18T11:16:07.725Z,8.62
2018-04-18T11:17:07.934Z,8.82
2018-04-18T11:18:08.144Z,8.92
2018-04-18T11:19:08.339Z,8.33
2018-04-18T11:20:08.540Z,7.32
2018-04-18T11:21:08.736Z,7.52
2018-04-18T11:22:08.936Z,7.52
2018-04-18T11:23:09.135Z,7.53
2018-04-18T11:24:09.347Z,7.23
2018-04-18T11:25:09.541Z,6.23
2018-04-18T11:26:09.738Z,6.73
2018-04-18T11:27:09.945Z,8.33
2018-04-18T11:28:10.142Z,6.72
2018-04-18T11:29:10.345Z,7.12
2018-04-18T11:30:10.544Z,6.82
2018-04-18T11:31:10.748Z,7.62
2018-04-18T11:32:10.944Z,7.62
2018-04-18T11:33:11.148Z,7.62
2018-04-18T11:34:11.351Z,7.53
2018-04-18T11:35:11.558Z,7.32
2018-04-18T11:36:11.762Z,7.23
2018-04-18T11:37:11.965Z,7.03
2018-04-18T11:38:12.157Z,7.73
2018-04-18T11:39:12.355Z,7.14
2018-04-18T11:40:12.556Z,6.92
2018-04-18T11:41:12.782Z,6.52
2018-04-18T11:42:12.960Z,7.11
2018-04-18T11:47:32.519Z,6.52
2018-04-18T11:48:32.715Z,6.83
2018-04-18T11:49:32.921Z,5.72
2018-04-18T11:50:33.125Z,6.13
2018-04-18T11:51:33.329Z,6.23
2018-04-18T11:52:33.542Z,6.13
2018-04-18T11:55:06.889Z,5.73
2018-04-18T11:56:07.091Z,5.73
2018-04-18T11:57:07.291Z,5.13
2018-04-18T11:58:07.489Z,5.33
2018-04-18T11:59:07.693Z,5.32
2018-04-18T12:00:07.897Z,5.22
2018-04-18T12:01:08.094Z,5.03
2018-04-18T12:02:08.361Z,5.13
2018-04-18T12:03:23.412Z,5.02
2018-04-18T12:05:41.847Z,4.62
2018-04-18T12:06:42.046Z,4.42
2018-04-18T12:07:42.248Z,4.93
2018-04-18T12:08:42.451Z,4.52
2018-04-18T12:09:42.654Z,4.52
2018-04-18T12:10:42.861Z,4.32
2018-04-18T12:11:43.050Z,4.03
2018-04-18T12:12:43.262Z,3.92
2018-04-18T12:13:43.463Z,4.63
2018-04-18T12:14:43.664Z,4.63
2018-04-18T12:15:43.866Z,5.33
2018-04-18T12:16:44.073Z,4.13
2018-04-18T12:17:44.272Z,3.72
2018-04-18T12:18:44.474Z,3.92
2018-04-18T12:19:44.682Z,4.73
2018-04-18T12:20:44.885Z,4.13
2018-04-18T12:21:45.104Z,3.63
2018-04-18T12:22:45.310Z,3.63
2018-04-18T12:23:45.522Z,3.22
2018-04-18T12:24:45.721Z,2.92
2018-04-18T12:25:45.925Z,3.12
2018-04-18T12:26:46.164Z,3.72
2018-04-18T12:27:46.323Z,3.62
2018-04-18T12:28:46.538Z,5.03
2018-04-18T12:29:46.739Z,3.72
2018-04-18T12:30:46.936Z,5.42
2018-04-18T12:31:47.154Z,5.41
2018-04-18T12:32:47.345Z,4.30
2018-04-18T12:33:47.565Z,4.60
2018-04-18T12:34:47.756Z,5.59
2018-04-18T12:35:47.956Z,5.58
2018-04-18T12:36:48.166Z,5.48
2018-04-18T12:37:48.361Z,5.88
2018-04-18T12:38:48.567Z,5.38
2018-04-18T12:39:48.765Z,6.27
2018-04-18T12:40:48.974Z,6.76
2018-04-18T12:41:49.176Z,7.06
2018-04-18T12:43:04.378Z,7.26
2018-04-18T12:43:52.193Z,9.15
2018-04-18T12:44:49.760Z,7.95
2018-04-18T12:45:49.953Z,8.15
2018-04-18T12:46:50.242Z,8.26
2018-04-18T12:47:50.315Z,7.87
2018-04-18T12:48:50.512Z,5.98
2018-04-18T12:49:50.712Z,5.98
2018-04-18T12:50:51.031Z,6.27
2018-04-18T12:51:51.171Z,7.16
2018-04-18T12:52:51.424Z,8.05
2018-04-18T12:53:51.616Z,7.85
2018-04-18T12:54:51.834Z,8.24
2018-04-18T12:55:52.020Z,8.14
2018-04-18T12:56:52.213Z,8.93
2018-04-18T12:57:52.398Z,8.83
2018-04-18T12:58:52.609Z,8.82
2018-04-18T12:59:52.807Z,8.72
2018-04-18T13:00:53.001Z,8.62
2018-04-18T13:01:53.193Z,8.32
2018-04-18T13:02:53.385Z,9.21
2018-04-18T13:03:53.589Z,8.51
2018-04-18T13:04:53.781Z,8.71
2018-04-18T13:05:53.972Z,9.11
2018-04-18T13:06:54.166Z,8.90
2018-04-18T13:07:54.348Z,9.40
2018-04-18T13:08:54.541Z,8.80